Time;durP1;ratioP1;P1;durP2;ratioP2;P2;SDS_P1;SDS_P2;PMS_P1;PMS_P2;Temp;Humidity;BMP_temperature;BMP_pressure;BME280_temperature;BME280_humidity;BME280_pressure;Samples;Min_cycle;Max_cycle;Signal;HPM_P1;HPM_P2
2022/05/30 00:00:21;;;;;;;3.50;1.60;;;;;;;2.69;100.00;92430.28;2115083;28;20027;-81
2022/05/30 00:01:23;;;;;;;1.55;1.40;;;;;;;2.68;100.00;92426.13;2106593;28;20089;-81
2022/05/30 00:02:25;;;;;;;3.55;1.63;;;;;;;2.65;100.00;92426.91;2107051;28;20016;-81
2022/05/30 00:03:26;;;;;;;2.00;1.45;;;;;;;2.48;100.00;92420.53;2106653;28;20023;-80
2022/05/30 00:04:27;;;;;;;1.60;1.50;;;;;;;2.57;100.00;92422.78;2106654;28;20020;-81
2022/05/30 00:05:46;;;;;;;1.73;1.55;;;;;;;2.57;100.00;92420.88;2115081;28;20020;-80
2022/05/30 00:06:47;;;;;;;3.88;1.60;;;;;;;2.54;100.00;92419.00;2109225;28;20059;-80
2022/05/30 00:07:49;;;;;;;1.77;1.30;;;;;;;2.44;100.00;92427.69;2092093;28;20051;-81
2022/05/30 00:08:51;;;;;;;1.80;1.35;;;;;;;2.53;100.00;92420.13;2081973;28;20462;-81
2022/05/30 00:09:52;;;;;;;1.65;1.55;;;;;;;2.45;100.00;92419.41;2082031;28;20052;-81
2022/05/30 00:10:53;;;;;;;2.38;1.75;;;;;;;2.34;100.00;92420.56;2089880;28;20032;-80
2022/05/30 00:11:55;;;;;;;1.55;1.40;;;;;;;2.20;100.00;92418.72;2098222;28;20031;-81
2022/05/30 00:12:56;;;;;;;2.50;1.60;;;;;;;2.23;100.00;92413.44;2089953;28;20389;-80
2022/05/30 00:13:57;;;;;;;1.67;1.58;;;;;;;2.42;100.00;92409.63;2081620;28;20067;-81
2022/05/30 00:14:59;;;;;;;2.03;1.80;;;;;;;2.34;100.00;92410.78;2081688;28;20083;-81
2022/05/30 00:16:15;;;;;;;2.90;1.52;;;;;;;2.43;100.00;92411.13;2089941;28;20069;-80
2022/05/30 00:17:17;;;;;;;2.22;1.52;;;;;;;2.36;100.00;92405.13;2100487;28;20029;-80
2022/05/30 00:18:18;;;;;;;3.25;1.67;;;;;;;2.32;100.00;92405.13;2089966;28;20509;-81
2022/05/30 00:19:19;;;;;;;1.60;1.50;;;;;;;2.48;100.00;92408.09;2089950;28;20029;-80
2022/05/30 00:20:20;;;;;;;2.55;1.58;;;;;;;2.34;100.00;92407.41;2089848;28;20021;-81
2022/05/30 00:21:24;;;;;;;3.30;1.63;;;;;;;2.22;100.00;92404.00;2089997;28;20540;-80
2022/05/30 00:22:25;;;;;;;2.28;1.73;;;;;;;2.24;100.00;92409.69;2090199;28;20108;-80
2022/05/30 00:23:27;;;;;;;1.50;1.40;;;;;;;2.24;100.00;92404.41;2098227;28;20040;-80
2022/05/30 00:24:28;;;;;;;1.95;1.50;;;;;;;2.19;100.00;92404.03;2106395;28;20020;-81
2022/05/30 00:25:29;;;;;;;2.28;1.30;;;;;;;2.38;100.00;92408.88;2106219;28;20024;-81
2022/05/30 00:26:40;;;;;;;2.67;1.40;;;;;;;2.38;100.00;92408.13;2098062;28;20028;-81
2022/05/30 00:27:43;;;;;;;1.90;1.60;;;;;;;2.37;100.00;92406.59;2106602;28;20020;-80
2022/05/30 00:28:46;;;;;;;2.28;1.58;;;;;;;2.40;100.00;92405.84;2098082;28;20452;-81
2022/05/30 00:29:48;;;;;;;3.40;1.63;;;;;;;2.39;100.00;92405.09;2090504;28;20032;-80
2022/05/30 00:30:50;;;;;;;2.85;1.75;;;;;;;2.18;100.00;92405.91;2098009;28;20025;-81
2022/05/30 00:31:52;;;;;;;2.22;1.38;;;;;;;2.26;100.00;92407.41;2098294;28;20078;-80
2022/05/30 00:32:53;;;;;;;1.55;1.40;;;;;;;2.25;100.00;92403.25;2097933;28;20515;-80
2022/05/30 00:33:54;;;;;;;2.85;1.50;;;;;;;2.22;100.00;92408.53;2089646;28;20044;-81
2022/05/30 00:34:55;;;;;;;2.53;1.58;;;;;;;2.16;100.00;92407.44;2089687;28;20071;-81
2022/05/30 00:35:56;;;;;;;1.58;1.30;;;;;;;2.10;100.00;92401.78;2100424;28;20457;-80
2022/05/30 00:36:57;;;;;;;3.28;1.58;;;;;;;1.97;100.00;92408.56;2106462;28;20035;-80
2022/05/30 00:37:58;;;;;;;2.63;1.73;;;;;;;2.03;100.00;92406.31;2101167;28;20078;-80
2022/05/30 00:38:59;;;;;;;2.05;1.48;;;;;;;2.14;100.00;92407.03;2098009;28;20028;-81
2022/05/30 00:40:00;;;;;;;2.58;1.88;;;;;;;2.04;100.00;92408.56;2106258;28;20539;-81
2022/05/30 00:41:01;;;;;;;10.02;1.60;;;;;;;2.07;100.00;92404.44;2105994;28;20020;-81
2022/05/30 00:42:17;;;;;;;1.92;1.70;;;;;;;1.93;100.00;92407.81;2098005;28;20106;-81
2022/05/30 00:43:20;;;;;;;2.40;1.40;;;;;;;1.82;100.00;92405.19;2100215;28;20107;-80
2022/05/30 00:44:20;;;;;;;4.70;1.65;;;;;;;1.93;100.00;92402.56;2098206;28;20016;-80
2022/05/30 00:45:21;;;;;;;3.00;1.33;;;;;;;1.89;100.00;92407.06;2106142;28;20031;-80
2022/05/30 00:46:22;;;;;;;2.45;1.60;;;;;;;1.95;100.00;92406.31;2097887;28;20016;-81
2022/05/30 00:47:34;;;;;;;2.20;1.60;;;;;;;1.79;100.00;92399.94;2089630;28;20469;-80
2022/05/30 00:48:39;;;;;;;2.67;1.50;;;;;;;1.69;100.00;92411.97;2092443;28;20532;-81
2022/05/30 00:49:45;;;;;;;2.22;1.60;;;;;;;1.78;100.00;92399.19;2098361;28;20119;-81
2022/05/30 00:50:49;;;;;;;2.88;1.92;;;;;;;1.67;100.00;92407.09;2090177;28;20032;-81
2022/05/30 00:51:54;;;;;;;4.22;1.60;;;;;;;1.73;100.00;92400.31;2090707;28;20032;-81
2022/05/30 00:52:56;;;;;;;3.33;1.60;;;;;;;1.75;100.00;92399.94;2099517;28;20082;-81
2022/05/30 00:53:58;;;;;;;2.67;1.52;;;;;;;1.76;100.00;92398.81;2081060;28;20084;-80
2022/05/30 00:55:10;;;;;;;3.00;1.55;;;;;;;1.72;100.00;92398.06;2081751;28;20072;-80
2022/05/30 00:56:13;;;;;;;3.10;1.70;;;;;;;1.62;100.00;92398.81;2093577;27;20021;-81
2022/05/30 00:57:22;;;;;;;2.22;1.58;;;;;;;1.65;100.00;92408.59;2105603;28;20024;-81
2022/05/30 00:58:27;;;;;;;2.40;1.50;;;;;;;1.72;100.00;92400.69;2099979;28;20043;-81
2022/05/30 00:59:28;;;;;;;1.98;1.52;;;;;;;1.64;100.00;92399.19;2106799;28;20039;-81
2022/05/30 01:00:29;;;;;;;3.28;1.58;;;;;;;1.82;100.00;92393.91;2097793;28;20020;-81
2022/05/30 01:01:32;;;;;;;1.45;1.30;;;;;;;1.72;100.00;92400.69;2089416;28;20029;-80
2022/05/30 01:02:35;;;;;;;2.25;1.60;;;;;;;1.74;100.00;92404.44;2098347;28;20111;-80
2022/05/30 01:06:31;;;;;;;2.40;1.60;;;;;;;1.56;100.00;92395.06;2108541;28;20066;-80
2022/05/30 01:07:33;;;;;;;2.28;2.08;;;;;;;1.38;100.00;92397.69;2105530;28;20052;-81
2022/05/30 01:08:52;;;;;;;2.15;1.60;;;;;;;1.32;100.00;92399.16;2089806;28;20025;-80
2022/05/30 01:09:55;;;;;;;2.72;1.90;;;;;;;1.37;100.00;92404.06;2100490;28;20025;-80
2022/05/30 01:10:56;;;;;;;2.45;1.60;;;;;;;1.38;100.00;92395.78;2111291;28;20105;-80
2022/05/30 01:12:06;;;;;;;2.60;1.58;;;;;;;1.48;100.00;92395.03;2106191;28;20102;-81
2022/05/30 01:13:10;;;;;;;4.43;1.83;;;;;;;1.54;100.00;92398.06;2108651;27;20077;-80
2022/05/30 01:14:11;;;;;;;1.65;1.40;;;;;;;1.49;100.00;92395.78;2114664;27;20054;-81
2022/05/30 01:15:14;;;;;;;2.88;1.67;;;;;;;1.51;100.00;92396.19;2114404;28;20032;-80
2022/05/30 01:16:16;;;;;;;3.42;1.67;;;;;;;1.57;100.00;92397.31;2106213;28;20380;-80
2022/05/30 01:17:17;;;;;;;2.30;1.70;;;;;;;1.27;100.00;92395.00;2096323;28;20024;-80
2022/05/30 01:18:29;;;;;;;2.58;1.20;;;;;;;1.30;100.00;92396.16;2089444;28;20481;-80
2022/05/30 01:19:58;;;;;;;4.82;1.40;;;;;;;1.47;100.00;92387.53;2099343;28;20051;-80
2022/05/30 01:21:29;;;;;;;1.40;1.30;;;;;;;1.41;100.00;92392.41;2101390;28;20484;-80
2022/05/30 01:22:54;;;;;;;2.22;1.63;;;;;;;1.30;100.00;92391.66;2093427;28;20044;-80
2022/05/30 01:24:33;;;;;;;2.97;1.20;;;;;;;1.13;100.00;92395.75;2095821;28;20569;-80
2022/05/30 01:25:59;;;;;;;1.92;1.38;;;;;;;1.14;100.00;92385.97;2082786;28;20045;-80
2022/05/30 01:27:06;;;;;;;1.85;1.20;;;;;;;1.22;100.00;92390.88;2092522;28;20513;-80
2022/05/30 01:28:07;;;;;;;1.98;1.60;;;;;;;1.08;100.00;92387.47;2102278;28;20103;-80
2022/05/30 01:29:31;;;;;;;2.17;1.40;;;;;;;1.12;100.00;92386.34;2105904;28;20039;-80
2022/05/30 01:30:35;;;;;;;2.50;1.70;;;;;;;1.13;100.00;92387.84;2111157;28;20405;-80
2022/05/30 01:31:36;;;;;;;1.90;1.38;;;;;;;1.13;100.00;92379.97;2097976;28;20029;-80
2022/05/30 01:32:37;;;;;;;1.35;1.25;;;;;;;1.16;100.00;92386.38;2105839;28;20024;-80
2022/05/30 01:33:38;;;;;;;1.48;1.38;;;;;;;1.22;100.00;92382.97;2105792;28;20055;-80
2022/05/30 01:34:39;;;;;;;2.42;1.55;;;;;;;1.05;100.00;92385.59;2089283;28;20095;-79
2022/05/30 01:35:40;;;;;;;2.78;1.70;;;;;;;1.05;100.00;92386.34;2089128;28;20028;-80
2022/05/30 01:36:41;;;;;;;2.00;1.50;;;;;;;1.02;100.00;92383.72;2089296;28;20429;-80
2022/05/30 01:37:42;;;;;;;2.20;1.40;;;;;;;1.04;100.00;92381.47;2083522;28;20605;-80
2022/05/30 01:38:43;;;;;;;1.40;1.30;;;;;;;0.94;100.00;92378.44;2095368;28;20021;-80
2022/05/30 01:39:44;;;;;;;3.10;1.52;;;;;;;0.92;100.00;92377.28;2097528;28;20028;-80
2022/05/30 01:40:45;;;;;;;1.77;1.52;;;;;;;1.00;100.00;92382.19;2097529;28;20052;-81
2022/05/30 01:41:46;;;;;;;2.10;1.75;;;;;;;1.14;100.00;92378.06;2105811;28;20110;-80
2022/05/30 01:42:47;;;;;;;1.85;1.30;;;;;;;1.20;100.00;92376.59;2097542;28;20016;-80
2022/05/30 01:43:48;;;;;;;1.83;1.52;;;;;;;1.02;100.00;92370.56;2089347;28;20116;-80
2022/05/30 01:44:49;;;;;;;2.67;1.50;;;;;;;1.13;100.00;92379.97;2097672;28;20086;-81
2022/05/30 01:45:50;;;;;;;1.80;1.23;;;;;;;1.22;100.00;92376.97;2097421;28;20053;-79
2022/05/30 01:46:51;;;;;;;2.92;1.42;;;;;;;0.93;100.00;92373.56;2105768;28;20020;-81
2022/05/30 01:47:52;;;;;;;1.80;1.40;;;;;;;1.02;100.00;92379.22;2097500;28;20020;-80
2022/05/30 01:48:53;;;;;;;1.63;1.20;;;;;;;1.03;100.00;92380.72;2097536;28;20020;-80
2022/05/30 01:50:01;;;;;;;2.42;1.50;;;;;;;1.06;100.00;92371.31;2097519;28;20016;-80
2022/05/30 01:51:03;;;;;;;3.22;1.80;;;;;;;1.10;100.00;92379.94;2098206;28;20424;-80
2022/05/30 01:52:04;;;;;;;1.45;1.30;;;;;;;1.07;100.00;92375.44;2089340;28;20021;-80
2022/05/30 01:53:05;;;;;;;2.20;1.40;;;;;;;1.06;100.00;92366.81;2089268;28;20432;-80
2022/05/30 01:54:06;;;;;;;2.33;1.50;;;;;;;1.06;100.00;92371.31;2097367;28;20020;-80
2022/05/30 01:55:08;;;;;;;1.98;1.48;;;;;;;1.05;100.00;92375.06;2097500;28;20020;-80
2022/05/30 01:56:09;;;;;;;2.47;1.58;;;;;;;0.84;100.00;92368.66;2089146;28;20390;-80
2022/05/30 01:57:10;;;;;;;2.83;1.65;;;;;;;0.72;100.00;92366.34;2097470;28;20043;-81
2022/05/30 01:58:11;;;;;;;2.03;1.42;;;;;;;0.83;100.00;92364.50;2105731;28;20047;-80
2022/05/30 01:59:12;;;;;;;1.95;1.40;;;;;;;0.90;100.00;92363.75;2097403;28;20509;-80
2022/05/30 02:00:14;;;;;;;2.35;1.30;;;;;;;0.72;100.00;92361.09;2089161;28;20450;-81
2022/05/30 02:01:20;;;;;;;4.05;1.45;;;;;;;0.61;100.00;92355.03;2097553;28;20631;-81
2022/05/30 02:02:21;;;;;;;2.10;1.58;;;;;;;0.79;100.00;92358.50;2098088;28;20016;-81
2022/05/30 02:03:22;;;;;;;2.50;1.30;;;;;;;0.64;100.00;92364.81;2097443;28;20043;-81
2022/05/30 02:04:23;;;;;;;1.63;1.33;;;;;;;0.46;100.00;92372.66;2097037;28;20028;-80
2022/05/30 02:05:25;;;;;;;1.55;1.33;;;;;;;0.52;100.00;92363.28;2089511;28;20025;-80
2022/05/30 02:06:31;;;;;;;2.40;1.50;;;;;;;0.72;100.00;92361.09;2089023;28;20064;-80
2022/05/30 02:07:33;;;;;;;1.75;1.40;;;;;;;0.79;100.00;92358.50;2098114;28;20477;-80
2022/05/30 02:08:33;;;;;;;3.92;1.08;;;;;;;0.64;100.00;92365.56;2080984;28;20044;-80
2022/05/30 02:09:34;;;;;;;3.42;1.50;;;;;;;0.49;100.00;92364.78;2089035;28;20036;-81
2022/05/30 02:10:39;;;;;;;1.92;1.35;;;;;;;0.68;100.00;92360.31;2088824;28;20036;-80
2022/05/30 02:13:29;;;;;;;;;;;;;;;0.63;100.00;92373.84;2148454;27;20822;-80
2022/05/30 02:14:30;;;;;;;1.33;1.10;;;;;;;0.61;100.00;92370.81;2129817;27;19915;-80
2022/05/30 02:17:00;;;;;;;2.28;1.48;;;;;;;0.49;100.00;92364.78;2121563;27;20113;-80
2022/05/30 02:17:04;;;;;;;2.33;1.50;;;;;;;0.47;100.00;92366.25;2141157;27;20085;-81
2022/05/30 02:18:07;;;;;;;2.40;1.40;;;;;;;0.63;100.00;92363.31;2125500;27;20072;-81
2022/05/30 02:19:09;;;;;;;1.38;1.15;;;;;;;0.49;100.00;92366.66;2108920;27;20051;-80
2022/05/30 02:20:11;;;;;;;1.83;1.25;;;;;;;0.60;100.00;92358.78;2120471;28;20026;-80
2022/05/30 02:21:12;;;;;;;2.42;1.13;;;;;;;0.61;100.00;92361.03;2112614;28;20019;-81
2022/05/30 02:22:16;;;;;;;1.30;1.20;;;;;;;0.47;100.00;92361.75;2112924;27;20034;-81
2022/05/30 02:23:18;;;;;;;3.40;1.48;;;;;;;0.38;100.00;92369.22;2121936;27;20546;-81
2022/05/30 02:24:18;;;;;;;1.40;1.30;;;;;;;0.57;100.00;92362.16;2114475;27;20024;-80
2022/05/30 02:25:20;;;;;;;2.40;1.35;;;;;;;0.64;100.00;92364.81;2121354;27;20686;-81
2022/05/30 02:26:21;;;;;;;1.65;1.40;;;;;;;0.64;100.00;92364.81;2121722;27;20141;-80
2022/05/30 02:27:23;;;;;;;2.58;1.40;;;;;;;0.42;100.00;92370.00;2121221;27;20039;-80
2022/05/30 02:28:24;;;;;;;1.83;1.30;;;;;;;0.47;100.00;92364.38;2113003;27;20040;-80
2022/05/30 02:29:25;;;;;;;1.50;1.40;;;;;;;0.17;100.00;92364.63;2121514;27;20057;-80
2022/05/30 02:30:26;;;;;;;2.08;1.30;;;;;;;0.19;100.00;92362.41;2121451;27;20084;-80
2022/05/30 02:31:28;;;;;;;3.05;1.40;;;;;;;0.38;100.00;92361.34;2121297;27;20050;-80
2022/05/30 02:32:29;;;;;;;3.08;1.38;;;;;;;0.41;100.00;92357.25;2126809;27;20065;-80
2022/05/30 02:37:29;;;;;;;1.38;1.10;;;;;;;0.48;100.00;92359.88;2125789;27;20034;-80
2022/05/30 02:38:30;;;;;;;4.00;1.48;;;;;;;0.50;100.00;92362.91;2129490;27;20022;-81
2022/05/30 02:39:31;;;;;;;1.60;1.30;;;;;;;0.36;100.00;92360.97;2121386;28;20024;-80
2022/05/30 02:40:32;;;;;;;2.60;1.27;;;;;;;0.14;100.00;92359.38;2112821;28;20023;-80
2022/05/30 02:41:33;;;;;;;2.20;1.50;;;;;;;0.59;100.00;92354.66;2112687;28;20464;-81
2022/05/30 02:42:34;;;;;;;2.17;1.40;;;;;;;0.35;100.00;92367.38;2112675;28;20716;-80
2022/05/30 02:43:35;;;;;;;2.67;1.40;;;;;;;0.32;100.00;92364.72;2112872;28;20026;-80
2022/05/30 02:44:38;;;;;;;1.75;1.45;;;;;;;0.24;100.00;92361.28;2112812;27;20106;-80
2022/05/30 02:45:40;;;;;;;2.47;1.50;;;;;;;0.22;100.00;92364.31;2112489;28;20381;-80
2022/05/30 02:46:41;;;;;;;2.58;1.35;;;;;;;0.27;100.00;92363.19;2096356;28;20478;-80
2022/05/30 02:47:42;;;;;;;2.45;1.50;;;;;;;0.44;100.00;92361.75;2096026;28;20112;-80
2022/05/30 02:48:43;;;;;;;2.25;1.33;;;;;;;0.37;100.00;92359.09;2105038;27;20024;-81
2022/05/30 02:49:44;;;;;;;2.17;1.30;;;;;;;0.32;100.00;92362.84;2129771;27;20102;-81
2022/05/30 02:50:45;;;;;;;1.95;1.30;;;;;;;0.28;100.00;92356.06;2121095;28;20028;-80
2022/05/30 02:51:46;;;;;;;1.70;1.40;;;;;;;0.31;100.00;92360.56;2112821;27;20032;-80
2022/05/30 02:52:47;;;;;;;2.55;1.48;;;;;;;0.24;100.00;92356.78;2112608;28;20099;-80
2022/05/30 02:53:48;;;;;;;1.80;1.50;;;;;;;0.09;100.00;92349.97;2121107;27;20495;-80
2022/05/30 02:54:49;;;;;;;1.75;1.50;;;;;;;-0.01;100.00;92355.91;2121173;28;20055;-80
2022/05/30 02:55:51;;;;;;;1.95;1.58;;;;;;;0.29;100.00;92355.69;2121003;27;20049;-80
2022/05/30 02:56:57;;;;;;;1.77;1.50;;;;;;;0.31;100.00;92353.44;2121234;27;20019;-80
2022/05/30 02:57:58;;;;;;;1.40;1.30;;;;;;;0.29;100.00;92357.56;2113406;28;20098;-80
2022/05/30 02:59:01;;;;;;;1.50;1.30;;;;;;;0.36;100.00;92355.72;2113035;27;20028;-80
2022/05/30 03:00:04;;;;;;;2.05;1.50;;;;;;;0.28;100.00;92356.81;2121146;28;20023;-80
2022/05/30 03:01:05;;;;;;;2.50;1.58;;;;;;;0.07;100.00;92356.72;2121370;27;20024;-80
2022/05/30 03:02:06;;;;;;;1.88;1.45;;;;;;;0.03;100.00;92353.31;2121222;27;20019;-81
2022/05/30 03:03:08;;;;;;;2.17;1.30;;;;;;;0.11;100.00;92365.38;2112571;28;20046;-80
2022/05/30 03:04:09;;;;;;;2.00;1.20;;;;;;;-0.04;100.00;92351.41;2121086;28;20020;-80
2022/05/30 03:05:10;;;;;;;1.65;1.42;;;;;;;0.08;100.00;92358.22;2112775;27;20802;-80
2022/05/30 03:06:13;;;;;;;1.77;1.30;;;;;;;0.20;100.00;92355.28;2121002;28;20035;-80
2022/05/30 03:07:15;;;;;;;1.98;1.50;;;;;;;0.11;100.00;92350.34;2120947;28;20026;-80
2022/05/30 03:08:16;;;;;;;2.22;1.40;;;;;;;0.12;100.00;92351.09;2112058;27;20027;-80
2022/05/30 03:09:18;;;;;;;4.00;1.52;;;;;;;-0.02;100.00;92357.78;2112528;28;20114;-80
2022/05/30 03:10:20;;;;;;;1.90;1.40;;;;;;;0.10;100.00;92355.97;2096167;28;20809;-80
2022/05/30 03:11:21;;;;;;;2.45;1.30;;;;;;;0.16;100.00;92354.50;2095844;28;20091;-80
2022/05/30 03:12:22;;;;;;;1.50;1.35;;;;;;;0.15;100.00;92360.88;2095688;28;20021;-80
2022/05/30 03:13:40;;;;;;;3.70;1.48;;;;;;;-0.07;100.00;92357.38;2104002;28;20089;-80
2022/05/30 03:14:41;;;;;;;1.48;1.35;;;;;;;-0.04;100.00;92360.03;2106367;28;20050;-81
2022/05/30 03:15:42;;;;;;;1.33;1.23;;;;;;;0.11;100.00;92360.09;2112577;28;20377;-80
2022/05/30 03:16:44;;;;;;;1.50;1.40;;;;;;;0.14;100.00;92357.50;2112469;28;20027;-80
2022/05/30 03:17:45;;;;;;;1.70;1.60;;;;;;;0.16;100.00;92354.50;2104356;28;20039;-80
2022/05/30 03:18:46;;;;;;;1.50;1.40;;;;;;;-0.08;100.00;92358.50;2104161;28;20024;-80
2022/05/30 03:19:47;;;;;;;2.70;1.40;;;;;;;-0.03;100.00;92360.78;2104244;28;20032;-80
2022/05/30 03:20:48;;;;;;;2.70;1.70;;;;;;;-0.04;100.00;92362.66;2104040;28;20023;-80
2022/05/30 03:21:49;;;;;;;1.73;1.40;;;;;;;0.04;100.00;92360.81;2095717;28;20031;-80
2022/05/30 03:22:51;;;;;;;2.53;1.70;;;;;;;0.06;100.00;92360.47;2104073;28;20024;-80
2022/05/30 03:23:53;;;;;;;2.85;1.80;;;;;;;0.21;100.00;92362.03;2121249;27;20019;-81
2022/05/30 03:24:54;;;;;;;2.65;1.73;;;;;;;0.14;100.00;92359.38;2106625;28;20016;-80
2022/05/30 03:25:55;;;;;;;1.67;1.55;;;;;;;0.17;100.00;92359.38;2090195;28;20135;-81
2022/05/30 03:26:56;;;;;;;1.65;1.48;;;;;;;0.26;100.00;92356.41;2090279;28;20552;-80
2022/05/30 03:27:57;;;;;;;2.58;1.60;;;;;;;0.25;100.00;92363.53;2098497;28;20024;-81
2022/05/30 03:29:00;;;;;;;3.65;1.40;;;;;;;0.12;100.00;92354.47;2098559;28;20497;-80
2022/05/30 03:30:01;;;;;;;1.38;1.27;;;;;;;0.07;100.00;92364.59;2107205;28;20054;-80
2022/05/30 03:31:03;;;;;;;1.50;1.30;;;;;;;-0.12;100.00;92357.75;2106575;28;20066;-81
2022/05/30 03:32:06;;;;;;;1.10;1.08;;;;;;;-0.13;100.00;92359.63;2098995;28;20029;-81
2022/05/30 03:33:09;;;;;;;2.47;1.48;;;;;;;-0.03;100.00;92366.78;2115040;28;20567;-81
2022/05/30 03:34:20;;;;;;;1.50;1.40;;;;;;;-0.05;100.00;92363.75;2098631;28;20550;-80
2022/05/30 03:35:21;;;;;;;3.45;1.70;;;;;;;-0.04;100.00;92364.53;2092962;28;20021;-80
2022/05/30 03:36:26;;;;;;;1.67;1.55;;;;;;;0.01;100.00;92368.69;2090128;28;20032;-80
2022/05/30 03:37:27;;;;;;;6.35;1.70;;;;;;;-0.21;100.00;92373.81;2091803;28;20061;-80
2022/05/30 03:38:28;;;;;;;1.40;1.30;;;;;;;-0.01;100.00;92369.03;2115125;28;20412;-80
2022/05/30 03:39:29;;;;;;;1.92;1.52;;;;;;;0.10;100.00;92366.50;2106730;28;20114;-80
2022/05/30 03:40:30;;;;;;;1.50;1.40;;;;;;;0.07;100.00;92375.84;2106562;28;20069;-80
2022/05/30 03:41:31;;;;;;;1.67;1.33;;;;;;;-0.11;100.00;92367.13;2098224;28;20034;-81
2022/05/30 03:42:33;;;;;;;1.40;1.30;;;;;;;-0.09;100.00;92376.16;2101646;28;20027;-80
2022/05/30 03:43:34;;;;;;;3.33;1.30;;;;;;;-0.14;100.00;92367.84;2107078;28;20024;-80
2022/05/30 03:44:35;;;;;;;2.13;1.40;;;;;;;-0.05;100.00;92374.28;2090415;28;20159;-80
2022/05/30 03:45:39;;;;;;;3.10;1.30;;;;;;;0.03;100.00;92375.06;2098267;28;20032;-80
2022/05/30 03:46:41;;;;;;;2.25;1.25;;;;;;;0.01;100.00;92371.31;2107046;28;20030;-80
2022/05/30 03:47:45;;;;;;;2.83;1.45;;;;;;;-0.14;100.00;92368.59;2119966;27;20023;-80
2022/05/30 03:48:46;;;;;;;2.80;1.27;;;;;;;-0.16;100.00;92375.34;2106497;28;20020;-80
2022/05/30 03:49:48;;;;;;;2.67;1.40;;;;;;;-0.22;100.00;92376.78;2106971;27;20028;-80
2022/05/30 03:50:49;;;;;;;3.17;1.42;;;;;;;-0.05;100.00;92365.66;2107910;28;20024;-80
2022/05/30 03:51:50;;;;;;;2.55;1.40;;;;;;;0.01;100.00;92369.44;2106924;28;20739;-80
2022/05/30 03:52:52;;;;;;;2.55;1.70;;;;;;;0.04;100.00;92367.94;2106401;28;20024;-81
2022/05/30 03:53:53;;;;;;;1.52;1.40;;;;;;;0.06;100.00;92371.72;2106602;28;20166;-80
2022/05/30 03:54:57;;;;;;;2.50;1.33;;;;;;;0.02;100.00;92376.19;2098287;28;20100;-80
2022/05/30 03:55:58;;;;;;;2.40;1.40;;;;;;;-0.06;100.00;92378.03;2090742;28;20516;-80
2022/05/30 03:57:00;;;;;;;1.83;1.50;;;;;;;-0.14;100.00;92379.09;2106550;28;20024;-81
2022/05/30 03:58:06;;;;;;;1.75;1.23;;;;;;;-0.20;100.00;92380.56;2098204;28;20024;-80
2022/05/30 03:59:09;;;;;;;1.95;1.40;;;;;;;-0.19;100.00;92384.69;2091411;28;20064;-81
2022/05/30 04:00:21;;;;;;;1.85;1.20;;;;;;;-0.01;100.00;92380.31;2114978;28;20136;-81
2022/05/30 04:01:24;;;;;;;1.38;1.20;;;;;;;-0.13;100.00;92375.38;2097963;28;20032;-80
2022/05/30 04:02:25;;;;;;;1.58;1.33;;;;;;;0.07;100.00;92377.72;2104981;27;20024;-80
2022/05/30 04:03:27;;;;;;;2.80;1.48;;;;;;;0.08;100.00;92393.13;2114904;28;20032;-80
2022/05/30 04:04:28;;;;;;;1.48;1.38;;;;;;;-0.02;100.00;92384.06;2098250;28;20025;-81
2022/05/30 04:05:29;;;;;;;1.60;1.50;;;;;;;-0.20;100.00;92380.56;2106540;28;20492;-80
2022/05/30 04:06:30;;;;;;;1.73;1.50;;;;;;;-0.15;100.00;92379.47;2098209;28;20032;-81
2022/05/30 04:07:32;;;;;;;1.63;1.42;;;;;;;-0.09;100.00;92378.78;2107791;28;20046;-80
2022/05/30 04:08:33;;;;;;;1.33;1.17;;;;;;;-0.02;100.00;92376.19;2106502;28;20747;-80
2022/05/30 04:09:35;;;;;;;3.45;1.38;;;;;;;-0.01;100.00;92380.31;2089924;28;20035;-80
2022/05/30 04:10:36;;;;;;;2.38;1.40;;;;;;;0.10;100.00;92379.63;2098255;28;20108;-80
2022/05/30 04:11:37;;;;;;;3.70;1.33;;;;;;;0.04;100.00;92375.81;2114819;28;20031;-80
2022/05/30 04:12:38;;;;;;;1.60;1.50;;;;;;;0.18;100.00;92386.44;2106168;28;20028;-80
2022/05/30 04:13:39;;;;;;;3.53;1.50;;;;;;;0.08;100.00;92379.97;2106443;28;20024;-81
2022/05/30 04:14:42;;;;;;;2.15;1.52;;;;;;;0.15;100.00;92384.53;2106441;28;20092;-80
2022/05/30 04:15:53;;;;;;;2.42;1.40;;;;;;;0.14;100.00;92385.66;2106281;28;20046;-80
2022/05/30 04:16:54;;;;;;;2.55;1.17;;;;;;;0.16;100.00;92392.03;2100807;28;20020;-80
2022/05/30 04:17:57;;;;;;;1.58;1.48;;;;;;;0.26;100.00;92385.31;2106475;28;20024;-81
2022/05/30 04:19:01;;;;;;;4.20;1.52;;;;;;;0.37;100.00;92388.75;2106527;28;20500;-81
2022/05/30 04:20:05;;;;;;;4.72;1.80;;;;;;;0.40;100.00;92382.78;2115613;27;20106;-82
2022/05/30 04:21:11;;;;;;;1.52;1.42;;;;;;;0.41;100.00;92383.53;2106194;28;20027;-81
2022/05/30 04:22:12;;;;;;;1.45;1.30;;;;;;;0.49;100.00;92393.69;2098604;28;20489;-81
2022/05/30 04:23:14;;;;;;;1.25;1.17;;;;;;;0.42;100.00;92385.78;2089756;28;20028;-81
2022/05/30 04:24:15;;;;;;;1.83;1.40;;;;;;;0.43;100.00;92389.91;2098374;28;20401;-80
2022/05/30 04:25:16;;;;;;;2.78;1.42;;;;;;;0.45;100.00;92386.94;2106386;28;20027;-80
2022/05/30 04:26:17;;;;;;;2.75;1.30;;;;;;;0.58;100.00;92390.72;2114690;28;20030;-79
2022/05/30 04:27:18;;;;;;;2.03;1.60;;;;;;;0.47;100.00;92389.94;2098057;28;20024;-81
2022/05/30 04:28:21;;;;;;;4.20;1.70;;;;;;;0.36;100.00;92389.88;2106575;28;20032;-80
2022/05/30 04:29:22;;;;;;;1.52;1.30;;;;;;;0.39;100.00;92394.38;2106461;28;20028;-80
2022/05/30 04:30:23;;;;;;;1.90;1.40;;;;;;;0.47;100.00;92395.19;2106305;28;20100;-81
2022/05/30 04:31:26;;;;;;;2.88;1.40;;;;;;;0.48;100.00;92391.44;2106193;28;20532;-81
2022/05/30 04:32:27;;;;;;;2.03;1.40;;;;;;;0.48;100.00;92388.78;2106676;27;20031;-80
2022/05/30 04:33:28;;;;;;;1.92;1.60;;;;;;;0.45;100.00;92390.31;2114532;28;20621;-81
2022/05/30 04:34:30;;;;;;;2.15;1.33;;;;;;;0.52;100.00;92394.81;2097937;28;20028;-80
2022/05/30 04:35:31;;;;;;;1.52;1.13;;;;;;;0.55;100.00;92388.84;2098243;28;20024;-81
2022/05/30 04:36:34;;;;;;;1.92;1.45;;;;;;;0.57;100.00;92393.72;2099939;28;20401;-81
2022/05/30 04:37:35;;;;;;;2.22;1.40;;;;;;;0.60;100.00;92387.72;2096224;28;20032;-80
2022/05/30 04:38:40;;;;;;;2.63;1.40;;;;;;;0.69;100.00;92385.50;2103055;28;20130;-81
2022/05/30 04:39:42;;;;;;;2.40;1.38;;;;;;;0.71;100.00;92391.91;2106887;27;20043;-81
2022/05/30 04:40:44;;;;;;;4.60;1.40;;;;;;;0.75;100.00;92392.66;2114491;28;20502;-80
2022/05/30 04:41:47;;;;;;;1.65;1.52;;;;;;;0.66;100.00;92383.59;2114567;28;20019;-80
2022/05/30 04:42:49;;;;;;;4.35;1.67;;;;;;;0.74;100.00;92396.41;2106062;28;20376;-81
2022/05/30 04:43:51;;;;;;;3.88;1.60;;;;;;;0.78;100.00;92383.25;2089830;28;20036;-82
2022/05/30 04:44:53;;;;;;;1.95;1.30;;;;;;;0.80;100.00;92388.94;2095412;28;20032;-80
2022/05/30 04:46:08;;;;;;;4.28;1.73;;;;;;;0.95;100.00;92393.09;2097782;28;20508;-80
2022/05/30 04:47:11;;;;;;;1.52;1.40;;;;;;;0.97;100.00;92379.56;2101738;28;20113;-81
2022/05/30 04:48:15;;;;;;;1.98;1.30;;;;;;;0.98;100.00;92387.09;2106097;28;20381;-81
2022/05/30 04:49:16;;;;;;;1.63;1.52;;;;;;;1.09;100.00;92383.72;2098217;28;20071;-80
2022/05/30 04:50:17;;;;;;;2.88;1.75;;;;;;;1.09;100.00;92386.34;2097767;28;20103;-80
2022/05/30 04:51:18;;;;;;;2.95;1.65;;;;;;;1.05;100.00;92383.69;2106070;28;20070;-81
2022/05/30 04:52:19;;;;;;;2.15;1.50;;;;;;;1.06;100.00;92379.22;2114423;28;20873;-81
2022/05/30 04:53:20;;;;;;;2.00;1.50;;;;;;;1.09;100.00;92375.81;2114371;28;20024;-80
2022/05/30 04:54:22;;;;;;;2.45;1.75;;;;;;;1.12;100.00;92378.47;2089584;28;20031;-81
2022/05/30 04:55:23;;;;;;;5.03;2.08;;;;;;;1.18;100.00;92376.97;2089827;28;20108;-81
2022/05/30 04:56:24;;;;;;;1.95;1.75;;;;;;;1.26;100.00;92373.22;2089366;28;20055;-81
2022/05/30 04:57:43;;;;;;;3.00;2.30;;;;;;;1.28;100.00;92378.13;2097664;28;20021;-82
2022/05/30 04:58:45;;;;;;;2.10;1.67;;;;;;;1.32;100.00;92378.88;2100176;28;20032;-80
2022/05/30 04:59:46;;;;;;;3.60;1.70;;;;;;;1.37;100.00;92367.97;2098032;28;20020;-81
2022/05/30 05:00:48;;;;;;;3.97;1.80;;;;;;;1.38;100.00;92377.38;2097689;28;20025;-80
2022/05/30 05:01:49;;;;;;;2.75;1.73;;;;;;;1.46;100.00;92378.13;2089663;28;20020;-81
2022/05/30 05:02:53;;;;;;;2.85;1.95;;;;;;;1.52;100.00;92376.59;2091709;28;20024;-81
2022/05/30 05:03:54;;;;;;;3.03;2.05;;;;;;;1.56;100.00;92373.97;2104029;27;20047;-81
2022/05/30 05:04:55;;;;;;;2.00;1.90;;;;;;;1.60;100.00;92377.38;2103760;28;20732;-80